Time;durP1;ratioP1;P1;durP2;ratioP2;P2;SDS_P1;SDS_P2;PMS_P1;PMS_P2;Temp;Humidity;BMP_temperature;BMP_pressure;BME280_temperature;BME280_humidity;BME280_pressure;Samples;Min_cycle;Max_cycle;Signal;HPM_P1;HPM_P2
2021/10/12 00:02:06;;;;;;;2.70;2.50;;;11.50;99.90;;;;;;4917191;29;20048;-82
2021/10/12 00:04:34;;;;;;;2.80;2.60;;;11.50;99.90;;;;;;4900284;29;20048;-80
2021/10/12 00:07:01;;;;;;;2.80;2.60;;;11.30;99.90;;;;;;4916487;29;20400;-81
2021/10/12 00:09:29;;;;;;;2.80;2.60;;;11.30;99.90;;;;;;4900011;29;20047;-79
2021/10/12 00:11:56;;;;;;;2.90;2.70;;;11.30;99.90;;;;;;4900164;29;20048;-81
2021/10/12 00:14:24;;;;;;;2.80;2.60;;;11.30;99.90;;;;;;4899911;29;20052;-81
2021/10/12 00:16:52;;;;;;;2.85;2.65;;;11.30;99.90;;;;;;4900092;29;20048;-79
2021/10/12 00:19:19;;;;;;;2.80;2.60;;;11.20;99.90;;;;;;4899549;29;20044;-81
2021/10/12 00:21:46;;;;;;;2.70;2.50;;;11.30;99.90;;;;;;4916774;29;20058;-79
2021/10/12 00:24:13;;;;;;;2.80;2.60;;;11.40;99.90;;;;;;4899970;29;20123;-82
2021/10/12 00:26:41;;;;;;;2.80;2.60;;;11.30;99.90;;;;;;4916979;29;20044;-79
2021/10/12 00:29:11;;;;;;;2.70;2.50;;;11.30;99.90;;;;;;4884168;29;20055;-77
2021/10/12 00:31:41;;;;;;;2.70;2.50;;;11.30;99.90;;;;;;4884637;29;20059;-79
2021/10/12 00:34:08;;;;;;;2.70;2.50;;;11.10;99.90;;;;;;4899370;29;20056;-78
2021/10/12 00:36:35;;;;;;;2.80;2.60;;;11.20;99.90;;;;;;4899215;29;20048;-81
2021/10/12 00:39:03;;;;;;;2.60;2.40;;;11.30;99.90;;;;;;4915241;29;20052;-79
2021/10/12 00:41:30;;;;;;;2.70;2.50;;;11.40;99.90;;;;;;4914520;29;20040;-78
2021/10/12 00:43:59;;;;;;;2.70;2.50;;;11.20;99.90;;;;;;4879422;29;20048;-79
2021/10/12 00:46:26;;;;;;;2.70;2.50;;;11.20;99.90;;;;;;4880511;29;20057;-79
2021/10/12 00:48:57;;;;;;;2.80;2.60;;;11.20;99.90;;;;;;4880220;29;20056;-84
2021/10/12 00:51:43;;;;;;;2.80;2.60;;;11.10;99.90;;;;;;4882912;29;20183;-81
2021/10/12 00:54:11;;;;;;;2.80;2.60;;;11.10;99.90;;;;;;4864554;29;20328;-85
2021/10/12 00:56:38;;;;;;;2.80;2.60;;;11.20;99.90;;;;;;4880031;29;20416;-79
2021/10/12 00:59:07;;;;;;;2.60;2.40;;;11.20;99.90;;;;;;4896163;29;20047;-82
2021/10/12 01:01:36;;;;;;;2.83;2.63;;;11.10;99.90;;;;;;4879063;29;20401;-80
2021/10/12 01:04:05;;;;;;;2.90;2.70;;;11.10;99.90;;;;;;4879703;29;20048;-80
2021/10/12 01:06:32;;;;;;;2.80;2.60;;;11.10;99.90;;;;;;4864552;29;20045;-83
2021/10/12 01:08:59;;;;;;;2.80;2.60;;;11.00;99.90;;;;;;4879149;29;20063;-79
2021/10/12 01:11:27;;;;;;;2.90;2.70;;;11.00;99.90;;;;;;4896519;29;20048;-81
2021/10/12 01:13:55;;;;;;;2.80;2.60;;;10.90;99.90;;;;;;4895907;29;20496;-79
2021/10/12 01:16:22;;;;;;;2.80;2.60;;;10.90;99.90;;;;;;4864074;29;20048;-78
2021/10/12 01:19:00;;;;;;;2.70;2.50;;;11.00;99.90;;;;;;4895695;29;20048;-82
2021/10/12 01:21:29;;;;;;;2.83;2.63;;;10.90;99.90;;;;;;4896306;29;20037;-80
2021/10/12 01:23:57;;;;;;;2.90;2.70;;;10.90;99.90;;;;;;4871968;29;20056;-82
2021/10/12 01:26:25;;;;;;;2.80;2.60;;;10.80;99.90;;;;;;4879239;29;20045;-84
2021/10/12 01:28:52;;;;;;;2.80;2.60;;;10.90;99.90;;;;;;4895808;29;20053;-80
2021/10/12 01:31:23;;;;;;;2.80;2.60;;;10.90;99.90;;;;;;4879306;29;20042;-79
2021/10/12 01:33:51;;;;;;;2.80;2.60;;;10.90;99.90;;;;;;4878880;29;20059;-78
2021/10/12 01:36:19;;;;;;;2.80;2.60;;;10.80;99.90;;;;;;4879382;29;20143;-81
2021/10/12 01:38:47;;;;;;;2.80;2.60;;;10.80;99.90;;;;;;4820287;29;1270114;-83
2021/10/12 01:41:15;;;;;;;3.00;2.80;;;10.80;99.90;;;;;;4861479;29;20053;-83
2021/10/12 01:43:43;;;;;;;2.70;2.50;;;10.80;99.90;;;;;;4888867;29;20047;-82
2021/10/12 01:46:10;;;;;;;2.90;2.70;;;10.70;99.90;;;;;;4895540;29;20057;-83
2021/10/12 01:48:37;;;;;;;2.90;2.70;;;10.70;99.90;;;;;;4912952;29;20086;-80
2021/10/12 01:51:05;;;;;;;3.00;2.80;;;10.70;99.90;;;;;;4911042;29;20052;-85
2021/10/12 01:53:32;;;;;;;2.83;2.63;;;10.80;99.90;;;;;;4895437;29;20477;-82
2021/10/12 01:55:59;;;;;;;2.88;2.67;;;10.80;99.90;;;;;;4895461;29;20041;-85
2021/10/12 01:58:27;;;;;;;2.70;2.50;;;10.80;99.90;;;;;;4895364;29;20060;-83
2021/10/12 02:00:54;;;;;;;2.90;2.70;;;10.90;99.90;;;;;;4915123;29;20052;-82
2021/10/12 02:03:22;;;;;;;2.97;2.78;;;10.80;99.90;;;;;;4880348;29;20133;-84
2021/10/12 02:05:50;;;;;;;2.90;2.70;;;10.80;99.90;;;;;;4914364;29;20440;-83
2021/10/12 02:08:17;;;;;;;2.90;2.70;;;10.80;99.90;;;;;;4909262;29;20131;-83
2021/10/12 02:10:45;;;;;;;2.80;2.60;;;10.70;99.90;;;;;;4915257;29;20052;-83
2021/10/12 02:16:08;;;;;;;2.90;2.70;;;10.70;99.90;;;;;;5139447;23;20455;-82
2021/10/12 02:18:35;;;;;;;2.90;2.70;;;10.70;99.90;;;;;;4918585;29;20044;-80
2021/10/12 02:21:03;;;;;;;2.90;2.70;;;10.80;99.90;;;;;;4918804;29;20067;-79
2021/10/12 02:23:30;;;;;;;3.58;3.28;;;10.70;99.90;;;;;;4886035;29;20618;-80
2021/10/12 02:25:57;;;;;;;2.90;2.70;;;10.70;99.90;;;;;;4918409;29;20044;-79
2021/10/12 02:28:25;;;;;;;2.90;2.70;;;10.90;99.90;;;;;;4901889;29;20397;-80
2021/10/12 02:30:52;;;;;;;2.90;2.70;;;11.10;99.90;;;;;;4901573;29;20059;-80
2021/10/12 02:33:20;;;;;;;2.80;2.60;;;11.00;99.90;;;;;;4901209;29;20048;-79
2021/10/12 02:35:47;;;;;;;3.00;2.80;;;10.90;99.90;;;;;;4901790;29;20039;-81
2021/10/12 02:38:14;;;;;;;2.80;2.60;;;10.90;99.90;;;;;;4901940;29;20056;-81
2021/10/12 02:40:42;;;;;;;2.80;2.60;;;10.90;99.90;;;;;;4918130;29;20043;-79
2021/10/12 02:43:09;;;;;;;2.85;2.65;;;10.90;99.90;;;;;;4912455;29;20051;-82
2021/10/12 02:45:37;;;;;;;2.80;2.60;;;10.70;99.90;;;;;;4937936;29;20035;-81
2021/10/12 02:48:04;;;;;;;6.22;4.35;;;11.00;99.90;;;;;;4920560;29;20123;-83
2021/10/12 02:50:32;;;;;;;2.80;2.60;;;10.90;99.90;;;;;;4905006;29;20048;-81
2021/10/12 02:52:59;;;;;;;2.90;2.70;;;10.70;99.90;;;;;;4920248;29;20044;-80
2021/10/12 02:55:26;;;;;;;2.90;2.70;;;10.50;99.90;;;;;;4904526;29;20143;-85
2021/10/12 02:57:54;;;;;;;2.80;2.60;;;10.60;99.90;;;;;;4937330;29;20138;-79
2021/10/12 03:00:21;;;;;;;2.70;2.50;;;10.70;99.90;;;;;;4937849;29;20043;-82
2021/10/12 03:02:48;;;;;;;2.92;2.72;;;10.70;99.90;;;;;;4920257;29;20048;-83
2021/10/12 03:05:16;;;;;;;2.97;2.78;;;10.50;99.90;;;;;;4920000;29;20043;-81
2021/10/12 03:07:43;;;;;;;2.90;2.70;;;10.60;99.90;;;;;;4937537;29;20044;-81
2021/10/12 03:10:10;;;;;;;2.85;2.65;;;10.80;99.90;;;;;;4919975;29;20043;-80
2021/10/12 03:12:38;;;;;;;3.05;2.85;;;10.90;99.90;;;;;;4936991;29;20444;-83
2021/10/12 03:15:06;;;;;;;2.88;2.67;;;10.80;99.90;;;;;;4936876;29;20039;-80
2021/10/12 03:17:33;;;;;;;2.90;2.70;;;10.90;99.90;;;;;;4936639;29;20107;-80
2021/10/12 03:20:01;;;;;;;2.80;2.60;;;10.90;99.90;;;;;;4919717;29;20032;-79
2021/10/12 03:22:28;;;;;;;2.80;2.60;;;10.90;99.90;;;;;;4919696;29;20131;-79
2021/10/12 03:24:55;;;;;;;2.80;2.60;;;10.90;99.90;;;;;;4918623;29;20039;-79
2021/10/12 03:27:23;;;;;;;2.80;2.60;;;10.90;99.90;;;;;;4919604;29;20066;-79
2021/10/12 03:29:50;;;;;;;3.58;3.28;;;10.90;99.90;;;;;;4936625;29;20035;-79
2021/10/12 03:32:17;;;;;;;2.80;2.60;;;11.00;99.90;;;;;;4936182;29;20078;-78
2021/10/12 03:34:45;;;;;;;2.88;2.67;;;11.00;99.90;;;;;;4919644;29;20082;-79
2021/10/12 03:37:12;;;;;;;2.95;2.75;;;11.00;99.90;;;;;;4919296;29;20055;-79
2021/10/12 03:39:39;;;;;;;3.00;2.80;;;11.00;99.90;;;;;;4936189;29;20118;-79
2021/10/12 03:42:06;;;;;;;2.80;2.60;;;11.00;99.90;;;;;;4918260;29;20058;-80
2021/10/12 03:44:34;;;;;;;2.80;2.60;;;11.00;99.90;;;;;;4917197;29;20381;-82
2021/10/12 03:47:01;;;;;;;3.97;3.63;;;11.00;99.90;;;;;;4916964;29;20396;-82
2021/10/12 03:49:28;;;;;;;2.88;2.67;;;11.10;99.90;;;;;;4885128;29;20080;-80
2021/10/12 03:51:56;;;;;;;2.90;2.70;;;11.10;99.90;;;;;;4900582;29;20078;-84
2021/10/12 03:54:23;;;;;;;2.70;2.50;;;11.10;99.90;;;;;;4885065;29;20044;-85
2021/10/12 03:56:50;;;;;;;2.80;2.60;;;10.90;99.90;;;;;;4900666;29;20055;-79
2021/10/12 03:59:18;;;;;;;2.78;2.58;;;10.90;99.90;;;;;;4884793;29;20047;-81
2021/10/12 04:01:45;;;;;;;2.92;2.72;;;11.00;99.90;;;;;;4916866;29;20043;-81
2021/10/12 04:04:13;;;;;;;2.90;2.70;;;11.00;99.90;;;;;;4900166;29;20058;-80
2021/10/12 04:06:40;;;;;;;2.70;2.50;;;11.00;99.90;;;;;;4900195;29;20166;-80
2021/10/12 04:09:07;;;;;;;2.83;2.63;;;11.00;99.90;;;;;;4899519;29;20037;-81
2021/10/12 04:11:34;;;;;;;2.85;2.65;;;10.60;99.90;;;;;;4900271;29;20392;-82
2021/10/12 04:14:02;;;;;;;2.80;2.60;;;10.50;99.90;;;;;;4900392;29;20130;-80
2021/10/12 04:16:30;;;;;;;2.85;2.65;;;10.50;99.90;;;;;;4914966;29;20052;-81
2021/10/12 04:18:57;;;;;;;3.00;2.80;;;10.40;99.90;;;;;;4900037;29;20135;-79
2021/10/12 04:21:25;;;;;;;2.90;2.70;;;10.40;99.90;;;;;;4900044;29;20040;-84
2021/10/12 04:23:52;;;;;;;2.80;2.60;;;10.40;99.90;;;;;;4899569;29;20044;-80
2021/10/12 04:26:20;;;;;;;2.90;2.70;;;10.40;99.90;;;;;;4899773;29;20048;-81
2021/10/12 04:28:47;;;;;;;2.90;2.70;;;10.30;99.90;;;;;;4899039;29;20095;-79
2021/10/12 04:31:14;;;;;;;3.22;3.03;;;10.30;99.90;;;;;;4915061;29;20044;-79
2021/10/12 04:33:42;;;;;;;3.00;2.80;;;10.40;99.90;;;;;;4915207;29;20054;-79
2021/10/12 04:36:09;;;;;;;3.00;2.80;;;10.30;99.90;;;;;;4899368;29;20119;-84
2021/10/12 04:38:36;;;;;;;3.00;2.80;;;10.30;99.90;;;;;;4883739;29;20125;-77
2021/10/12 04:41:03;;;;;;;3.00;2.80;;;10.40;99.90;;;;;;4899358;29;20052;-82
2021/10/12 04:43:31;;;;;;;2.80;2.60;;;10.40;99.90;;;;;;4909409;29;20040;-79
2021/10/12 04:45:58;;;;;;;3.05;2.85;;;10.30;99.90;;;;;;4934698;29;20058;-78
2021/10/12 04:48:25;;;;;;;3.00;2.80;;;10.30;99.90;;;;;;4935173;29;20047;-77
2021/10/12 04:50:55;;;;;;;2.90;2.70;;;10.30;99.90;;;;;;4934037;29;20051;-81
2021/10/12 04:53:23;;;;;;;3.15;2.92;;;10.30;99.90;;;;;;4917765;29;20056;-81
2021/10/12 04:55:50;;;;;;;2.92;2.72;;;10.30;99.90;;;;;;4902280;29;20135;-77
2021/10/12 04:58:18;;;;;;;2.90;2.70;;;10.30;99.90;;;;;;4916978;29;20063;-80
2021/10/12 05:00:46;;;;;;;3.00;2.80;;;10.30;99.90;;;;;;4933434;29;20425;-80
2021/10/12 05:03:13;;;;;;;3.03;2.83;;;10.20;99.90;;;;;;4917768;29;20048;-81
2021/10/12 05:05:41;;;;;;;3.00;2.80;;;10.30;99.90;;;;;;4902479;29;20050;-81
2021/10/12 05:08:09;;;;;;;3.53;3.22;;;10.60;99.90;;;;;;4934028;29;20118;-81
2021/10/12 05:10:37;;;;;;;3.13;2.92;;;10.90;99.90;;;;;;4934839;29;20399;-80
2021/10/12 05:13:05;;;;;;;3.00;2.80;;;10.90;99.90;;;;;;4934558;29;20039;-81
2021/10/12 05:15:35;;;;;;;3.50;3.20;;;11.00;99.90;;;;;;4917478;29;20074;-79
2021/10/12 05:18:09;;;;;;;4.60;4.20;;;10.90;99.90;;;;;;4934079;29;20044;-78
2021/10/12 05:20:37;;;;;;;4.15;3.85;;;10.90;99.90;;;;;;4934215;29;20075;-81
2021/10/12 05:23:04;;;;;;;3.00;2.80;;;10.60;99.90;;;;;;4917081;29;20039;-79
2021/10/12 05:25:32;;;;;;;2.80;2.60;;;10.80;99.90;;;;;;4916862;29;20043;-80
2021/10/12 05:28:01;;;;;;;3.00;2.80;;;10.90;99.90;;;;;;4890926;29;20047;-81
2021/10/12 05:30:29;;;;;;;2.80;2.60;;;11.00;99.90;;;;;;4897595;29;20115;-84
2021/10/12 05:32:56;;;;;;;2.90;2.70;;;11.00;99.90;;;;;;4887383;29;20240;-79
2021/10/12 05:35:24;;;;;;;2.80;2.60;;;10.90;99.90;;;;;;4890891;29;20043;-81
2021/10/12 05:37:51;;;;;;;2.90;2.70;;;10.90;99.90;;;;;;4904420;29;20369;-79
2021/10/12 05:40:18;;;;;;;2.80;2.60;;;11.00;99.90;;;;;;4869641;29;20047;-83
2021/10/12 05:42:46;;;;;;;2.80;2.60;;;11.00;99.90;;;;;;4901044;29;20051;-82
2021/10/12 05:45:13;;;;;;;2.80;2.60;;;11.00;99.90;;;;;;4899415;29;20127;-80
2021/10/12 05:47:51;;;;;;;2.92;2.72;;;10.70;99.90;;;;;;4883791;29;20057;-85
2021/10/12 05:50:42;;;;;;;3.58;3.28;;;10.80;99.90;;;;;;4901010;29;20100;-81
2021/10/12 05:56:00;;;;;;;3.00;2.80;;;10.90;99.90;;;;;;4884271;29;20380;-85
2021/10/12 05:58:32;;;;;;;2.90;2.70;;;11.00;99.90;;;;;;4883655;29;20150;-82
2021/10/12 06:01:03;;;;;;;2.90;2.70;;;10.90;99.90;;;;;;4883948;29;20508;-79
2021/10/12 06:03:31;;;;;;;3.65;3.35;;;10.60;99.90;;;;;;4883946;29;20037;-82
2021/10/12 06:06:00;;;;;;;2.90;2.70;;;10.80;99.90;;;;;;4883857;29;20695;-82
2021/10/12 06:08:30;;;;;;;3.88;3.58;;;10.70;99.90;;;;;;4867185;29;20068;-81
2021/10/12 06:10:58;;;;;;;2.80;2.60;;;10.70;99.90;;;;;;4883105;29;20045;-82
2021/10/12 06:13:26;;;;;;;2.80;2.60;;;10.80;99.90;;;;;;4872259;29;20119;-82
2021/10/12 06:15:54;;;;;;;2.70;2.50;;;10.90;99.90;;;;;;4874931;29;20374;-82
2021/10/12 06:18:47;;;;;;;2.80;2.60;;;11.00;99.90;;;;;;4890190;29;20037;-81
2021/10/12 06:21:41;;;;;;;2.70;2.50;;;11.10;99.90;;;;;;4893127;29;20136;-81
2021/10/12 06:24:24;;;;;;;2.80;2.60;;;11.10;99.90;;;;;;4884925;29;20425;-83
2021/10/12 06:26:51;;;;;;;2.80;2.60;;;10.70;99.90;;;;;;4872493;29;20048;-83
2021/10/12 06:29:19;;;;;;;2.70;2.50;;;10.60;99.90;;;;;;4872578;29;20032;-83
2021/10/12 06:31:46;;;;;;;3.00;2.80;;;10.60;99.90;;;;;;4888722;29;20065;-81
2021/10/12 06:34:16;;;;;;;2.80;2.60;;;10.70;99.90;;;;;;4882124;29;20051;-81
2021/10/12 06:36:52;;;;;;;2.80;2.60;;;10.60;99.90;;;;;;4889577;29;20431;-81
2021/10/12 06:39:20;;;;;;;2.80;2.60;;;10.70;99.90;;;;;;4881063;29;20135;-84
2021/10/12 06:41:50;;;;;;;2.90;2.70;;;10.80;99.90;;;;;;4902431;29;20043;-83
2021/10/12 06:44:17;;;;;;;2.90;2.70;;;11.00;99.90;;;;;;4874938;29;20156;-81
2021/10/12 06:46:44;;;;;;;4.32;3.05;;;11.10;99.90;;;;;;4902305;29;20059;-83
2021/10/12 06:49:12;;;;;;;2.70;2.50;;;11.20;99.90;;;;;;4891873;29;20075;-80
2021/10/12 06:51:40;;;;;;;2.70;2.50;;;11.20;99.90;;;;;;4898391;29;20041;-82
2021/10/12 06:54:16;;;;;;;2.70;2.50;;;11.40;99.90;;;;;;4888892;29;20076;-83
2021/10/12 06:56:43;;;;;;;2.70;2.50;;;11.40;99.90;;;;;;4875673;29;20048;-80
2021/10/12 06:59:11;;;;;;;3.25;3.05;;;11.40;99.90;;;;;;4888268;29;20049;-82
2021/10/12 07:01:39;;;;;;;2.70;2.50;;;11.50;99.90;;;;;;4898250;29;20040;-82
2021/10/12 07:04:06;;;;;;;2.97;2.78;;;11.60;99.90;;;;;;4898961;29;20087;-83
2021/10/12 07:06:34;;;;;;;2.80;2.60;;;11.50;99.90;;;;;;4889259;29;20052;-82
2021/10/12 07:09:01;;;;;;;4.25;3.95;;;11.60;99.90;;;;;;4881060;29;20044;-83
2021/10/12 07:11:29;;;;;;;2.60;2.40;;;11.80;99.90;;;;;;4881200;29;20056;-82
2021/10/12 07:13:56;;;;;;;2.65;2.45;;;11.70;99.90;;;;;;4890447;29;20467;-81
2021/10/12 07:16:24;;;;;;;2.65;2.45;;;12.00;99.90;;;;;;4889089;29;20048;-81
2021/10/12 07:18:54;;;;;;;;;;;12.20;99.90;;;;;;4890923;29;20056;-82
2021/10/12 07:21:25;;;;;;;2.88;2.67;;;12.40;99.90;;;;;;4882658;29;20327;-81
2021/10/12 07:23:56;;;;;;;2.60;2.40;;;12.30;99.90;;;;;;4882364;29;20147;-81
2021/10/12 07:26:25;;;;;;;2.50;2.30;;;12.10;99.90;;;;;;4888587;29;20044;-85
2021/10/12 07:29:01;;;;;;;2.50;2.30;;;12.20;99.90;;;;;;4860661;29;20063;-84
2021/10/12 07:31:29;;;;;;;2.40;2.20;;;12.10;99.90;;;;;;4867054;29;20469;-83
2021/10/12 07:34:12;;;;;;;2.50;2.30;;;11.90;99.90;;;;;;4883089;29;20053;-83
2021/10/12 07:36:39;;;;;;;2.70;2.50;;;12.20;99.90;;;;;;4881578;29;20059;-81
2021/10/12 07:39:07;;;;;;;2.50;2.30;;;12.50;99.90;;;;;;4881178;29;20416;-84
2021/10/12 07:41:35;;;;;;;2.60;2.40;;;12.50;99.90;;;;;;4866994;29;20049;-83
2021/10/12 07:44:06;;;;;;;2.40;2.20;;;12.60;99.90;;;;;;4919411;29;20075;-84
2021/10/12 07:46:34;;;;;;;;;;;12.80;99.90;;;;;;4919662;29;20048;-84
2021/10/12 07:49:01;;;;;;;2.40;2.20;;;12.70;99.90;;;;;;4918871;29;19923;-82
2021/10/12 07:51:47;;;;;;;2.55;2.35;;;12.90;99.90;;;;;;4910906;29;20040;-84
2021/10/12 07:54:18;;;;;;;2.40;2.20;;;13.10;99.90;;;;;;4880896;29;20048;-83
2021/10/12 07:56:46;;;;;;;2.55;2.35;;;12.70;99.90;;;;;;4881560;29;20032;-83
2021/10/12 07:59:38;;;;;;;2.60;2.40;;;12.80;99.90;;;;;;4897845;29;20496;-83
2021/10/12 08:02:06;;;;;;;2.53;2.33;;;12.90;99.90;;;;;;4895245;29;20128;-83
2021/10/12 08:04:34;;;;;;;2.40;2.20;;;12.70;99.90;;;;;;4899596;29;20056;-82
2021/10/12 08:07:02;;;;;;;2.40;2.20;;;12.40;99.90;;;;;;4900334;29;20123;-82
2021/10/12 08:09:29;;;;;;;2.40;2.20;;;12.30;99.90;;;;;;4899952;29;20123;-84
2021/10/12 08:11:57;;;;;;;2.50;2.30;;;12.30;99.90;;;;;;4916832;29;20042;-85
2021/10/12 08:14:27;;;;;;;2.47;2.28;;;12.50;99.90;;;;;;4899615;29;20143;-83
2021/10/12 08:16:56;;;;;;;2.50;2.30;;;12.40;99.90;;;;;;4884562;29;20139;-83
2021/10/12 08:19:23;;;;;;;2.50;2.30;;;12.70;99.90;;;;;;4899740;29;20420;-82
2021/10/12 08:21:50;;;;;;;2.40;2.20;;;12.40;99.90;;;;;;4916292;29;21586;-83
2021/10/12 08:24:20;;;;;;;2.40;2.20;;;12.60;99.90;;;;;;4884768;29;20476;-82
2021/10/12 08:26:49;;;;;;;2.40;2.20;;;12.80;99.90;;;;;;4884625;29;20408;-88
2021/10/12 08:29:16;;;;;;;6.10;3.85;;;12.60;99.90;;;;;;4876737;29;20052;-83
2021/10/12 08:31:47;;;;;;;2.50;2.30;;;12.30;99.90;;;;;;4896652;29;20088;-83
2021/10/12 08:34:38;;;;;;;2.40;2.20;;;12.20;99.90;;;;;;4876737;29;20057;-85
2021/10/12 08:37:08;;;;;;;2.50;2.30;;;12.20;99.90;;;;;;4880972;29;20051;-84
2021/10/12 08:39:43;;;;;;;2.40;2.20;;;12.50;99.90;;;;;;4880320;29;20060;-84
2021/10/12 08:42:21;;;;;;;2.40;2.20;;;12.50;99.90;;;;;;4887497;29;20051;-83
2021/10/12 08:44:59;;;;;;;2.60;2.40;;;12.40;99.90;;;;;;4902654;29;20056;-84
2021/10/12 08:47:29;;;;;;;2.50;2.30;;;12.10;99.90;;;;;;4933044;29;20781;-81
2021/10/12 08:49:59;;;;;;;2.60;2.40;;;12.30;99.90;;;;;;4917540;29;20075;-83
2021/10/12 08:52:29;;;;;;;2.40;2.20;;;12.20;99.90;;;;;;4903035;29;20381;-87
2021/10/12 08:54:57;;;;;;;2.50;2.30;;;12.30;99.90;;;;;;4918234;29;20051;-84
2021/10/12 08:57:40;;;;;;;2.70;2.50;;;11.90;99.90;;;;;;4917734;29;20052;-85
2021/10/12 09:00:19;;;;;;;2.60;2.40;;;11.90;99.90;;;;;;4917816;29;20753;-81
2021/10/12 09:03:29;;;;;;;2.60;2.40;;;11.90;99.90;;;;;;4918131;29;20409;-82
2021/10/12 09:06:04;;;;;;;2.70;2.50;;;11.80;99.90;;;;;;4917617;29;20036;-82
2021/10/12 09:08:41;;;;;;;2.78;2.58;;;11.70;99.90;;;;;;4916566;29;20044;-82
2021/10/12 09:11:23;;;;;;;2.70;2.50;;;11.80;99.90;;;;;;4909639;29;20036;-82
2021/10/12 09:14:02;;;;;;;2.70;2.50;;;11.90;99.90;;;;;;4883396;29;20064;-82
2021/10/12 09:16:34;;;;;;;2.70;2.50;;;11.90;99.90;;;;;;4898404;29;20404;-82
2021/10/12 09:19:04;;;;;;;3.08;2.88;;;11.90;99.90;;;;;;4896878;29;20123;-83
2021/10/12 09:21:35;;;;;;;2.63;2.42;;;12.10;99.90;;;;;;4889854;29;20052;-84
2021/10/12 09:24:08;;;;;;;2.50;2.30;;;12.20;99.90;;;;;;4898663;29;20103;-84
2021/10/12 09:26:49;;;;;;;2.88;2.67;;;12.30;99.90;;;;;;4883164;29;20044;-84
2021/10/12 09:31:57;;;;;;;2.58;2.38;;;12.20;99.90;;;;;;4898596;29;20090;-84
2021/10/12 09:34:28;;;;;;;2.50;2.30;;;12.30;99.90;;;;;;4898475;29;20048;-86
2021/10/12 09:36:55;;;;;;;2.60;2.40;;;12.50;99.90;;;;;;4891798;29;20060;-88
2021/10/12 09:39:30;;;;;;;2.60;2.40;;;12.60;99.90;;;;;;4898329;29;20399;-83
2021/10/12 09:42:06;;;;;;;2.50;2.30;;;12.60;99.90;;;;;;4898329;29;20080;-82
2021/10/12 09:44:37;;;;;;;2.40;2.20;;;12.80;99.90;;;;;;4890569;29;20041;-81
2021/10/12 09:47:10;;;;;;;2.70;2.50;;;12.90;99.90;;;;;;4896303;29;20076;-82
2021/10/12 09:49:38;;;;;;;2.40;2.20;;;12.90;99.90;;;;;;4900830;29;20044;-88
2021/10/12 09:52:12;;;;;;;2.30;2.10;;;12.80;99.90;;;;;;4913609;29;20123;-81
2021/10/12 09:54:48;;;;;;;2.40;2.20;;;12.60;99.90;;;;;;4898716;29;20253;-84
2021/10/12 09:57:17;;;;;;;2.40;2.20;;;12.80;99.90;;;;;;4915161;29;20044;-85
2021/10/12 09:59:46;;;;;;;4.25;3.95;;;12.80;99.90;;;;;;4897822;29;20043;-85
2021/10/12 10:02:25;;;;;;;2.15;2.05;;;12.80;99.90;;;;;;4898128;29;20441;-83
2021/10/12 10:04:54;;;;;;;2.40;2.20;;;12.70;99.90;;;;;;4898335;29;20131;-82
2021/10/12 10:07:31;;;;;;;2.78;2.58;;;12.90;99.90;;;;;;4882674;29;20079;-86
2021/10/12 10:10:04;;;;;;;2.50;2.30;;;12.80;99.90;;;;;;4882121;29;20048;-83
2021/10/12 10:12:32;;;;;;;2.30;2.10;;;12.80;99.90;;;;;;4895748;29;20127;-82
2021/10/12 10:15:00;;;;;;;2.30;2.10;;;13.00;99.90;;;;;;4880780;29;20389;-81
2021/10/12 10:17:38;;;;;;;2.30;2.10;;;13.00;99.90;;;;;;4904415;29;20059;-83
2021/10/12 10:20:07;;;;;;;2.50;2.30;;;13.20;99.90;;;;;;4904337;29;20102;-84
2021/10/12 10:22:43;;;;;;;2.30;2.10;;;13.30;99.90;;;;;;4895090;29;20052;-86
2021/10/12 10:25:30;;;;;;;2.30;2.10;;;13.30;99.90;;;;;;4865810;29;20445;-82
2021/10/12 10:28:24;;;;;;;2.20;2.10;;;13.80;99.90;;;;;;4896171;29;20049;-84
2021/10/12 10:30:53;;;;;;;2.10;2.00;;;13.60;99.90;;;;;;4879785;29;20097;-86
2021/10/12 10:33:35;;;;;;;2.20;2.10;;;13.70;99.90;;;;;;4880855;29;20068;-83
2021/10/12 10:36:04;;;;;;;2.40;2.20;;;13.00;99.90;;;;;;4868214;29;20056;-83
2021/10/12 10:38:47;;;;;;;2.30;2.10;;;13.40;99.90;;;;;;4867905;29;20044;-84
2021/10/12 10:41:19;;;;;;;2.10;2.00;;;13.40;99.90;;;;;;4883117;29;20299;-89
2021/10/12 10:43:49;;;;;;;2.35;2.15;;;13.30;99.90;;;;;;4892307;29;20385;-85
2021/10/12 10:46:32;;;;;;;;;;;13.40;99.90;;;;;;4905403;29;20424;-86
2021/10/12 10:49:29;;;;;;;2.25;2.08;;;14.20;99.90;;;;;;4904347;29;19934;-82
2021/10/12 10:52:04;;;;;;;2.10;2.00;;;13.80;99.90;;;;;;4895268;29;20063;-84
2021/10/12 10:54:38;;;;;;;2.75;2.55;;;13.70;99.90;;;;;;4919656;29;20770;-81
2021/10/12 10:57:18;;;;;;;2.00;1.90;;;14.00;99.90;;;;;;4919786;29;20082;-83
2021/10/12 11:00:06;;;;;;;1.90;1.80;;;13.80;99.90;;;;;;4919262;29;20054;-83
2021/10/12 11:02:34;;;;;;;2.35;2.17;;;14.20;99.90;;;;;;4889409;29;20056;-86
2021/10/12 11:05:01;;;;;;;1.90;1.80;;;14.40;99.90;;;;;;4904980;29;20411;-88
2021/10/12 11:07:29;;;;;;;1.90;1.80;;;15.20;99.90;;;;;;4920298;29;20444;-88
2021/10/12 11:09:57;;;;;;;2.10;2.00;;;15.70;99.90;;;;;;4920485;29;20116;-85
2021/10/12 11:12:30;;;;;;;1.90;1.80;;;15.60;99.90;;;;;;4938327;29;20052;-92
2021/10/12 11:15:07;;;;;;;1.88;1.77;;;15.40;99.90;;;;;;4920590;29;20066;-85
2021/10/12 11:17:36;;;;;;;1.70;1.60;;;14.90;99.90;;;;;;4936620;29;20043;-85
2021/10/12 11:20:11;;;;;;;1.60;1.50;;;15.80;99.90;;;;;;4919526;29;20048;-84
2021/10/12 11:22:43;;;;;;;1.70;1.60;;;15.80;99.90;;;;;;4919774;29;20062;-84
2021/10/12 11:25:11;;;;;;;1.60;1.50;;;16.60;99.90;;;;;;4936778;29;20054;-84
2021/10/12 11:27:43;;;;;;;1.60;1.50;;;16.40;99.90;;;;;;4902119;29;20048;-86
2021/10/12 11:30:15;;;;;;;1.52;1.42;;;16.30;99.90;;;;;;4917936;29;20043;-84
2021/10/12 11:32:55;;;;;;;2.78;2.58;;;15.40;99.90;;;;;;4918146;29;20400;-84
2021/10/12 11:35:32;;;;;;;1.63;1.52;;;14.40;99.90;;;;;;4918929;29;20120;-85
2021/10/12 11:38:00;;;;;;;1.80;1.70;;;13.90;99.90;;;;;;4936231;29;20424;-85
2021/10/12 11:40:28;;;;;;;1.80;1.70;;;14.10;99.90;;;;;;4935437;29;20054;-85
2021/10/12 11:43:06;;;;;;;1.80;1.70;;;14.40;99.90;;;;;;4900633;29;20095;-85
2021/10/12 11:45:34;;;;;;;2.45;2.25;;;14.40;99.90;;;;;;4883910;29;20500;-83
2021/10/12 11:48:01;;;;;;;1.90;1.80;;;14.00;99.90;;;;;;4900442;29;20055;-84
2021/10/12 11:50:28;;;;;;;2.00;1.90;;;13.50;99.90;;;;;;4900610;29;20131;-86
2021/10/12 11:52:56;;;;;;;2.10;2.00;;;13.40;99.90;;;;;;4892602;29;20056;-85
2021/10/12 11:55:29;;;;;;;2.10;2.00;;;13.60;99.90;;;;;;4885473;29;20123;-88
2021/10/12 11:58:10;;;;;;;2.10;2.00;;;13.50;99.90;;;;;;4900397;29;20044;-86
2021/10/12 12:00:39;;;;;;;2.05;1.95;;;13.90;99.90;;;;;;4900903;29;20056;-83
2021/10/12 12:03:19;;;;;;;2.10;2.00;;;14.00;99.90;;;;;;4902642;29;20112;-88
2021/10/12 12:05:52;;;;;;;3.05;2.85;;;13.90;99.90;;;;;;4919518;29;20051;-89
2021/10/12 12:08:20;;;;;;;2.30;2.10;;;13.90;99.90;;;;;;4886329;29;20074;-91
2021/10/12 12:10:49;;;;;;;2.30;2.10;;;13.90;99.90;;;;;;4918194;29;20099;-89
2021/10/12 12:13:17;;;;;;;2.10;2.00;;;13.90;99.90;;;;;;4885414;29;20052;-83
2021/10/12 12:15:45;;;;;;;2.45;2.25;;;13.70;99.90;;;;;;4901407;29;20091;-90
2021/10/12 12:18:14;;;;;;;2.13;2.03;;;13.60;99.90;;;;;;4918370;29;20040;-85
2021/10/12 12:21:08;;;;;;;2.10;2.00;;;13.60;99.90;;;;;;4901073;29;20594;-91
2021/10/12 12:23:47;;;;;;;2.10;2.00;;;13.70;99.90;;;;;;4915213;29;20059;-85
2021/10/12 12:26:21;;;;;;;2.10;2.00;;;13.80;99.90;;;;;;4902310;29;20058;-88
2021/10/12 12:28:48;;;;;;;2.00;1.90;;;13.90;99.90;;;;;;4902095;29;20044;-90
2021/10/12 12:31:18;;;;;;;2.00;1.90;;;13.70;99.90;;;;;;4918494;29;20522;-88
2021/10/12 12:33:49;;;;;;;2.10;2.00;;;13.90;99.90;;;;;;4918127;29;20043;-92
2021/10/12 12:36:18;;;;;;;2.40;2.20;;;14.10;99.90;;;;;;4918297;29;20592;-87
2021/10/12 12:38:46;;;;;;;2.10;2.00;;;13.80;99.90;;;;;;4887073;29;20052;-88
2021/10/12 12:41:23;;;;;;;2.00;1.90;;;13.90;99.90;;;;;;4900600;29;20143;-87
2021/10/12 12:43:58;;;;;;;2.50;2.30;;;14.00;99.90;;;;;;4910152;29;20099;-91
2021/10/12 12:46:26;;;;;;;2.30;2.10;;;13.90;99.90;;;;;;4904821;29;20071;-88
2021/10/12 12:49:22;;;;;;;2.35;2.15;;;14.40;99.90;;;;;;4936799;29;20507;-86
2021/10/12 12:51:49;;;;;;;2.10;2.00;;;13.80;99.90;;;;;;4917199;29;20062;-83
2021/10/12 12:54:48;;;;;;;2.38;2.17;;;13.70;99.90;;;;;;4919975;29;20071;-90
2021/10/12 12:57:17;;;;;;;2.40;2.20;;;14.10;99.90;;;;;;4937289;29;20459;-89
2021/10/12 13:00:05;;;;;;;2.30;2.10;;;14.40;99.90;;;;;;4937558;29;20069;-86
2021/10/12 13:02:33;;;;;;;2.58;2.38;;;14.20;99.90;;;;;;4920198;29;20075;-89
2021/10/12 13:05:01;;;;;;;3.72;3.45;;;14.50;99.90;;;;;;4920897;29;20055;-84
2021/10/12 13:07:29;;;;;;;2.00;1.90;;;14.20;99.90;;;;;;4920092;29;20070;-89
2021/10/12 13:09:57;;;;;;;2.10;2.00;;;15.00;99.90;;;;;;4912684;29;20051;-87
2021/10/12 13:12:25;;;;;;;1.80;1.70;;;16.70;99.90;;;;;;4903565;29;20447;-93
2021/10/12 13:14:52;;;;;;;1.70;1.60;;;16.50;99.90;;;;;;4936841;29;20074;-88